sensor_id;sensor_type;location;lat;lon;timestamp;P1;durP1;ratioP1;P2;durP2;ratioP2
81306;SDS011;70775;50.846;3.224;2023-06-26T00:01:32;8.63;;;4.20;;
81306;SDS011;70775;50.846;3.224;2023-06-26T00:03:58;10.07;;;4.00;;
81306;SDS011;70775;50.846;3.224;2023-06-26T00:06:24;10.02;;;4.55;;
81306;SDS011;70775;50.846;3.224;2023-06-26T00:08:51;8.68;;;4.25;;
81306;SDS011;70775;50.846;3.224;2023-06-26T00:11:18;12.07;;;4.97;;
81306;SDS011;70775;50.846;3.224;2023-06-26T00:13:44;10.00;;;4.38;;
81306;SDS011;70775;50.846;3.224;2023-06-26T00:16:09;12.57;;;4.63;;
81306;SDS011;70775;50.846;3.224;2023-06-26T00:18:35;8.27;;;4.35;;
81306;SDS011;70775;50.846;3.224;2023-06-26T00:21:01;9.30;;;4.25;;
81306;SDS011;70775;50.846;3.224;2023-06-26T00:23:26;10.65;;;4.40;;
81306;SDS011;70775;50.846;3.224;2023-06-26T00:25:56;9.65;;;4.75;;
81306;SDS011;70775;50.846;3.224;2023-06-26T00:28:21;12.20;;;4.95;;
81306;SDS011;70775;50.846;3.224;2023-06-26T00:30:47;11.85;;;4.95;;
81306;SDS011;70775;50.846;3.224;2023-06-26T00:33:13;11.75;;;5.00;;
81306;SDS011;70775;50.846;3.224;2023-06-26T00:35:38;12.05;;;5.05;;
81306;SDS011;70775;50.846;3.224;2023-06-26T00:38:04;14.18;;;5.32;;
81306;SDS011;70775;50.846;3.224;2023-06-26T00:40:29;15.63;;;4.53;;
81306;SDS011;70775;50.846;3.224;2023-06-26T00:42:55;7.63;;;4.32;;
81306;SDS011;70775;50.846;3.224;2023-06-26T00:45:21;10.50;;;4.63;;
81306;SDS011;70775;50.846;3.224;2023-06-26T00:47:46;15.00;;;5.65;;
81306;SDS011;70775;50.846;3.224;2023-06-26T00:50:13;13.43;;;4.95;;
81306;SDS011;70775;50.846;3.224;2023-06-26T00:52:40;10.77;;;4.95;;
81306;SDS011;70775;50.846;3.224;2023-06-26T00:55:06;10.88;;;5.22;;
81306;SDS011;70775;50.846;3.224;2023-06-26T00:57:32;10.55;;;4.82;;
81306;SDS011;70775;50.846;3.224;2023-06-26T00:59:58;12.55;;;4.93;;
81306;SDS011;70775;50.846;3.224;2023-06-26T01:02:26;14.50;;;6.00;;
81306;SDS011;70775;50.846;3.224;2023-06-26T01:04:53;9.38;;;4.68;;
81306;SDS011;70775;50.846;3.224;2023-06-26T01:07:19;13.82;;;5.40;;
81306;SDS011;70775;50.846;3.224;2023-06-26T01:09:46;15.55;;;5.22;;
81306;SDS011;70775;50.846;3.224;2023-06-26T01:12:13;14.43;;;5.15;;
81306;SDS011;70775;50.846;3.224;2023-06-26T01:14:40;13.73;;;5.15;;
81306;SDS011;70775;50.846;3.224;2023-06-26T01:17:06;13.13;;;5.20;;
81306;SDS011;70775;50.846;3.224;2023-06-26T01:19:33;11.93;;;5.75;;
81306;SDS011;70775;50.846;3.224;2023-06-26T01:28:23;11.07;;;4.82;;
81306;SDS011;70775;50.846;3.224;2023-06-26T01:30:51;13.38;;;5.28;;
81306;SDS011;70775;50.846;3.224;2023-06-26T01:33:17;12.85;;;5.13;;
81306;SDS011;70775;50.846;3.224;2023-06-26T01:35:43;13.50;;;4.70;;
81306;SDS011;70775;50.846;3.224;2023-06-26T01:38:13;14.95;;;5.43;;
81306;SDS011;70775;50.846;3.224;2023-06-26T01:40:39;17.02;;;5.93;;
81306;SDS011;70775;50.846;3.224;2023-06-26T01:43:06;12.43;;;5.47;;
81306;SDS011;70775;50.846;3.224;2023-06-26T01:45:51;12.85;;;5.55;;
81306;SDS011;70775;50.846;3.224;2023-06-26T01:48:21;14.32;;;5.82;;
81306;SDS011;70775;50.846;3.224;2023-06-26T01:50:51;14.93;;;5.13;;
81306;SDS011;70775;50.846;3.224;2023-06-26T01:53:19;14.98;;;6.03;;
81306;SDS011;70775;50.846;3.224;2023-06-26T01:55:55;17.67;;;6.80;;
81306;SDS011;70775;50.846;3.224;2023-06-26T01:58:35;13.75;;;4.70;;
81306;SDS011;70775;50.846;3.224;2023-06-26T02:01:05;13.55;;;6.28;;
81306;SDS011;70775;50.846;3.224;2023-06-26T02:03:31;13.15;;;5.68;;
81306;SDS011;70775;50.846;3.224;2023-06-26T02:05:57;17.23;;;6.07;;
81306;SDS011;70775;50.846;3.224;2023-06-26T02:08:22;15.07;;;5.25;;
81306;SDS011;70775;50.846;3.224;2023-06-26T02:10:48;16.85;;;6.57;;
81306;SDS011;70775;50.846;3.224;2023-06-26T02:13:14;14.13;;;5.88;;
81306;SDS011;70775;50.846;3.224;2023-06-26T02:15:39;15.88;;;6.35;;
81306;SDS011;70775;50.846;3.224;2023-06-26T02:18:05;19.92;;;5.97;;
81306;SDS011;70775;50.846;3.224;2023-06-26T02:20:31;14.60;;;5.80;;
81306;SDS011;70775;50.846;3.224;2023-06-26T02:22:58;17.70;;;6.63;;
81306;SDS011;70775;50.846;3.224;2023-06-26T02:25:24;23.48;;;5.93;;
81306;SDS011;70775;50.846;3.224;2023-06-26T02:27:49;16.60;;;5.90;;
81306;SDS011;70775;50.846;3.224;2023-06-26T02:30:15;16.67;;;6.22;;
81306;SDS011;70775;50.846;3.224;2023-06-26T02:32:41;15.05;;;6.60;;
81306;SDS011;70775;50.846;3.224;2023-06-26T02:35:06;14.88;;;6.20;;
81306;SDS011;70775;50.846;3.224;2023-06-26T02:37:32;18.08;;;6.65;;
81306;SDS011;70775;50.846;3.224;2023-06-26T02:39:58;14.38;;;5.50;;
81306;SDS011;70775;50.846;3.224;2023-06-26T02:42:24;18.38;;;6.35;;
81306;SDS011;70775;50.846;3.224;2023-06-26T02:44:49;18.08;;;6.10;;
81306;SDS011;70775;50.846;3.224;2023-06-26T02:47:15;14.45;;;5.65;;
81306;SDS011;70775;50.846;3.224;2023-06-26T02:49:41;18.42;;;6.63;;
81306;SDS011;70775;50.846;3.224;2023-06-26T02:52:06;16.10;;;6.00;;
81306;SDS011;70775;50.846;3.224;2023-06-26T02:54:32;14.40;;;5.53;;
81306;SDS011;70775;50.846;3.224;2023-06-26T02:56:57;14.93;;;5.35;;
81306;SDS011;70775;50.846;3.224;2023-06-26T02:59:24;16.30;;;5.93;;
81306;SDS011;70775;50.846;3.224;2023-06-26T03:01:51;19.50;;;5.78;;
81306;SDS011;70775;50.846;3.224;2023-06-26T03:04:16;14.65;;;4.95;;
81306;SDS011;70775;50.846;3.224;2023-06-26T03:06:43;15.02;;;4.82;;
81306;SDS011;70775;50.846;3.224;2023-06-26T03:09:09;15.82;;;4.90;;
81306;SDS011;70775;50.846;3.224;2023-06-26T03:11:34;13.82;;;4.22;;
81306;SDS011;70775;50.846;3.224;2023-06-26T03:14:00;13.82;;;4.55;;
81306;SDS011;70775;50.846;3.224;2023-06-26T03:16:26;13.52;;;3.90;;
81306;SDS011;70775;50.846;3.224;2023-06-26T03:18:51;12.40;;;4.30;;
81306;SDS011;70775;50.846;3.224;2023-06-26T03:21:17;13.75;;;3.97;;
81306;SDS011;70775;50.846;3.224;2023-06-26T03:23:43;12.68;;;4.38;;
81306;SDS011;70775;50.846;3.224;2023-06-26T03:26:08;11.93;;;3.60;;
81306;SDS011;70775;50.846;3.224;2023-06-26T03:28:34;10.55;;;3.53;;
81306;SDS011;70775;50.846;3.224;2023-06-26T03:31:00;16.27;;;4.35;;
81306;SDS011;70775;50.846;3.224;2023-06-26T03:33:25;12.05;;;3.63;;
81306;SDS011;70775;50.846;3.224;2023-06-26T03:35:51;13.55;;;3.90;;
81306;SDS011;70775;50.846;3.224;2023-06-26T03:38:17;10.02;;;3.53;;
81306;SDS011;70775;50.846;3.224;2023-06-26T03:40:43;10.15;;;3.08;;
81306;SDS011;70775;50.846;3.224;2023-06-26T03:43:08;10.18;;;3.13;;
81306;SDS011;70775;50.846;3.224;2023-06-26T03:45:34;7.45;;;3.03;;
81306;SDS011;70775;50.846;3.224;2023-06-26T03:47:59;7.43;;;2.85;;
81306;SDS011;70775;50.846;3.224;2023-06-26T03:50:25;10.00;;;2.95;;
81306;SDS011;70775;50.846;3.224;2023-06-26T03:52:51;10.98;;;3.13;;
81306;SDS011;70775;50.846;3.224;2023-06-26T03:55:17;10.70;;;3.22;;
81306;SDS011;70775;50.846;3.224;2023-06-26T03:57:43;6.18;;;2.45;;
81306;SDS011;70775;50.846;3.224;2023-06-26T04:00:08;9.23;;;2.67;;
81306;SDS011;70775;50.846;3.224;2023-06-26T04:02:36;8.82;;;2.70;;
81306;SDS011;70775;50.846;3.224;2023-06-26T04:05:02;6.35;;;2.10;;
81306;SDS011;70775;50.846;3.224;2023-06-26T04:07:29;7.30;;;2.38;;
81306;SDS011;70775;50.846;3.224;2023-06-26T04:09:56;6.60;;;2.15;;
81306;SDS011;70775;50.846;3.224;2023-06-26T04:12:24;7.28;;;2.47;;
81306;SDS011;70775;50.846;3.224;2023-06-26T04:14:50;9.32;;;2.70;;
81306;SDS011;70775;50.846;3.224;2023-06-26T04:17:15;7.28;;;2.95;;
81306;SDS011;70775;50.846;3.224;2023-06-26T04:19:41;8.60;;;2.50;;
81306;SDS011;70775;50.846;3.224;2023-06-26T04:22:07;9.32;;;2.58;;
81306;SDS011;70775;50.846;3.224;2023-06-26T04:24:32;6.28;;;2.17;;
81306;SDS011;70775;50.846;3.224;2023-06-26T04:26:58;6.18;;;1.92;;
81306;SDS011;70775;50.846;3.224;2023-06-26T04:29:25;6.18;;;1.92;;
81306;SDS011;70775;50.846;3.224;2023-06-26T04:31:52;6.20;;;2.13;;
81306;SDS011;70775;50.846;3.224;2023-06-26T04:34:26;7.85;;;1.88;;
81306;SDS011;70775;50.846;3.224;2023-06-26T04:36:52;6.03;;;2.55;;
81306;SDS011;70775;50.846;3.224;2023-06-26T04:39:18;8.15;;;2.42;;
81306;SDS011;70775;50.846;3.224;2023-06-26T04:41:44;10.73;;;2.10;;
81306;SDS011;70775;50.846;3.224;2023-06-26T04:44:10;5.47;;;2.00;;
81306;SDS011;70775;50.846;3.224;2023-06-26T04:46:37;8.82;;;2.00;;
81306;SDS011;70775;50.846;3.224;2023-06-26T04:49:06;6.43;;;1.90;;
81306;SDS011;70775;50.846;3.224;2023-06-26T04:51:32;5.97;;;1.77;;
81306;SDS011;70775;50.846;3.224;2023-06-26T04:53:58;6.43;;;2.10;;
81306;SDS011;70775;50.846;3.224;2023-06-26T04:56:24;7.60;;;2.10;;
81306;SDS011;70775;50.846;3.224;2023-06-26T04:58:49;5.90;;;1.90;;
81306;SDS011;70775;50.846;3.224;2023-06-26T05:01:15;5.57;;;2.15;;
81306;SDS011;70775;50.846;3.224;2023-06-26T05:03:41;5.00;;;1.73;;
81306;SDS011;70775;50.846;3.224;2023-06-26T05:06:06;3.63;;;1.92;;
81306;SDS011;70775;50.846;3.224;2023-06-26T05:08:32;4.00;;;1.88;;
81306;SDS011;70775;50.846;3.224;2023-06-26T05:10:57;6.28;;;1.95;;
81306;SDS011;70775;50.846;3.224;2023-06-26T05:13:26;6.07;;;1.90;;
81306;SDS011;70775;50.846;3.224;2023-06-26T05:15:52;5.25;;;1.90;;
81306;SDS011;70775;50.846;3.224;2023-06-26T05:18:18;3.90;;;1.67;;
81306;SDS011;70775;50.846;3.224;2023-06-26T05:20:44;5.00;;;1.55;;
81306;SDS011;70775;50.846;3.224;2023-06-26T05:23:12;4.45;;;2.08;;
81306;SDS011;70775;50.846;3.224;2023-06-26T05:25:38;5.70;;;1.83;;
81306;SDS011;70775;50.846;3.224;2023-06-26T05:28:05;7.25;;;2.22;;
81306;SDS011;70775;50.846;3.224;2023-06-26T05:30:31;7.07;;;2.05;;
81306;SDS011;70775;50.846;3.224;2023-06-26T05:33:00;6.07;;;2.15;;
81306;SDS011;70775;50.846;3.224;2023-06-26T05:35:30;18.42;;;2.28;;
81306;SDS011;70775;50.846;3.224;2023-06-26T05:37:56;4.68;;;1.80;;
81306;SDS011;70775;50.846;3.224;2023-06-26T05:40:24;3.22;;;1.63;;
81306;SDS011;70775;50.846;3.224;2023-06-26T05:42:50;2.25;;;1.65;;
81306;SDS011;70775;50.846;3.224;2023-06-26T05:45:16;6.22;;;2.05;;
81306;SDS011;70775;50.846;3.224;2023-06-26T05:47:41;5.85;;;1.80;;
81306;SDS011;70775;50.846;3.224;2023-06-26T05:50:08;5.38;;;1.90;;
81306;SDS011;70775;50.846;3.224;2023-06-26T05:52:34;7.38;;;2.25;;
81306;SDS011;70775;50.846;3.224;2023-06-26T05:55:01;5.18;;;2.00;;
81306;SDS011;70775;50.846;3.224;2023-06-26T05:57:28;6.30;;;2.05;;
81306;SDS011;70775;50.846;3.224;2023-06-26T05:59:55;5.35;;;1.88;;
81306;SDS011;70775;50.846;3.224;2023-06-26T06:02:21;4.93;;;1.90;;
81306;SDS011;70775;50.846;3.224;2023-06-26T06:04:47;4.22;;;1.88;;
81306;SDS011;70775;50.846;3.224;2023-06-26T06:07:13;9.20;;;2.22;;
81306;SDS011;70775;50.846;3.224;2023-06-26T06:09:38;6.50;;;2.70;;
81306;SDS011;70775;50.846;3.224;2023-06-26T06:12:05;11.95;;;2.30;;
81306;SDS011;70775;50.846;3.224;2023-06-26T06:14:34;5.80;;;2.25;;
81306;SDS011;70775;50.846;3.224;2023-06-26T06:17:00;4.95;;;1.70;;
81306;SDS011;70775;50.846;3.224;2023-06-26T06:19:26;7.15;;;2.25;;
81306;SDS011;70775;50.846;3.224;2023-06-26T06:25:15;6.72;;;2.28;;
81306;SDS011;70775;50.846;3.224;2023-06-26T06:27:41;4.22;;;2.17;;
81306;SDS011;70775;50.846;3.224;2023-06-26T06:30:07;4.88;;;1.90;;
81306;SDS011;70775;50.846;3.224;2023-06-26T06:32:34;4.13;;;2.00;;
81306;SDS011;70775;50.846;3.224;2023-06-26T06:34:59;7.63;;;2.10;;
81306;SDS011;70775;50.846;3.224;2023-06-26T06:37:29;6.45;;;2.10;;
81306;SDS011;70775;50.846;3.224;2023-06-26T06:39:56;5.07;;;2.30;;
81306;SDS011;70775;50.846;3.224;2023-06-26T06:42:23;8.20;;;2.70;;
81306;SDS011;70775;50.846;3.224;2023-06-26T06:44:48;8.52;;;2.45;;
81306;SDS011;70775;50.846;3.224;2023-06-26T06:47:14;6.25;;;2.40;;
81306;SDS011;70775;50.846;3.224;2023-06-26T06:49:39;7.47;;;2.25;;
81306;SDS011;70775;50.846;3.224;2023-06-26T06:52:05;6.15;;;2.40;;
81306;SDS011;70775;50.846;3.224;2023-06-26T06:54:31;10.63;;;2.40;;
81306;SDS011;70775;50.846;3.224;2023-06-26T06:56:56;8.90;;;2.72;;
81306;SDS011;70775;50.846;3.224;2023-06-26T06:59:22;7.57;;;2.35;;
81306;SDS011;70775;50.846;3.224;2023-06-26T07:01:48;6.97;;;2.22;;
81306;SDS011;70775;50.846;3.224;2023-06-26T07:04:13;9.68;;;2.45;;
81306;SDS011;70775;50.846;3.224;2023-06-26T07:06:40;5.63;;;2.25;;
81306;SDS011;70775;50.846;3.224;2023-06-26T07:09:05;8.00;;;2.60;;
81306;SDS011;70775;50.846;3.224;2023-06-26T07:11:31;8.82;;;2.30;;
81306;SDS011;70775;50.846;3.224;2023-06-26T07:13:57;6.88;;;2.45;;
81306;SDS011;70775;50.846;3.224;2023-06-26T07:16:23;5.20;;;1.73;;
81306;SDS011;70775;50.846;3.224;2023-06-26T07:18:48;7.95;;;2.65;;
81306;SDS011;70775;50.846;3.224;2023-06-26T07:21:15;5.43;;;2.45;;
81306;SDS011;70775;50.846;3.224;2023-06-26T07:23:40;9.43;;;2.80;;
81306;SDS011;70775;50.846;3.224;2023-06-26T07:26:06;7.90;;;2.47;;
81306;SDS011;70775;50.846;3.224;2023-06-26T07:28:31;5.55;;;1.88;;
81306;SDS011;70775;50.846;3.224;2023-06-26T07:34:20;4.43;;;2.15;;
81306;SDS011;70775;50.846;3.224;2023-06-26T07:36:49;7.22;;;2.03;;
81306;SDS011;70775;50.846;3.224;2023-06-26T07:39:14;5.30;;;1.92;;
81306;SDS011;70775;50.846;3.224;2023-06-26T07:41:40;6.70;;;2.33;;
81306;SDS011;70775;50.846;3.224;2023-06-26T07:44:06;8.52;;;2.45;;
81306;SDS011;70775;50.846;3.224;2023-06-26T07:46:31;6.57;;;2.35;;
81306;SDS011;70775;50.846;3.224;2023-06-26T07:48:57;5.50;;;2.30;;
81306;SDS011;70775;50.846;3.224;2023-06-26T07:51:23;4.60;;;2.72;;
81306;SDS011;70775;50.846;3.224;2023-06-26T07:53:49;6.70;;;2.33;;
81306;SDS011;70775;50.846;3.224;2023-06-26T07:56:16;6.90;;;2.60;;
81306;SDS011;70775;50.846;3.224;2023-06-26T07:58:41;7.75;;;2.50;;
81306;SDS011;70775;50.846;3.224;2023-06-26T08:01:07;6.57;;;2.33;;
81306;SDS011;70775;50.846;3.224;2023-06-26T08:03:32;7.00;;;2.20;;
81306;SDS011;70775;50.846;3.224;2023-06-26T08:05:58;8.05;;;3.13;;
81306;SDS011;70775;50.846;3.224;2023-06-26T08:08:24;5.90;;;2.20;;
81306;SDS011;70775;50.846;3.224;2023-06-26T08:10:51;7.47;;;2.20;;
81306;SDS011;70775;50.846;3.224;2023-06-26T08:13:17;6.30;;;2.25;;
81306;SDS011;70775;50.846;3.224;2023-06-26T08:15:43;6.68;;;2.20;;
81306;SDS011;70775;50.846;3.224;2023-06-26T08:18:08;6.70;;;2.08;;
81306;SDS011;70775;50.846;3.224;2023-06-26T08:20:34;6.68;;;2.30;;
81306;SDS011;70775;50.846;3.224;2023-06-26T08:23:03;3.72;;;2.10;;
81306;SDS011;70775;50.846;3.224;2023-06-26T08:25:29;4.25;;;1.88;;
81306;SDS011;70775;50.846;3.224;2023-06-26T08:27:55;5.60;;;1.85;;
81306;SDS011;70775;50.846;3.224;2023-06-26T08:30:21;5.30;;;1.83;;
81306;SDS011;70775;50.846;3.224;2023-06-26T08:32:47;6.72;;;2.53;;
81306;SDS011;70775;50.846;3.224;2023-06-26T08:35:12;3.83;;;2.17;;
81306;SDS011;70775;50.846;3.224;2023-06-26T08:37:38;5.68;;;2.28;;
81306;SDS011;70775;50.846;3.224;2023-06-26T08:40:04;4.20;;;2.00;;
81306;SDS011;70775;50.846;3.224;2023-06-26T08:42:31;7.05;;;2.08;;
81306;SDS011;70775;50.846;3.224;2023-06-26T08:44:57;3.45;;;1.90;;
81306;SDS011;70775;50.846;3.224;2023-06-26T08:47:22;2.97;;;1.90;;
81306;SDS011;70775;50.846;3.224;2023-06-26T08:55:38;4.38;;;2.15;;
81306;SDS011;70775;50.846;3.224;2023-06-26T08:58:05;5.07;;;2.30;;
81306;SDS011;70775;50.846;3.224;2023-06-26T09:00:31;6.18;;;1.92;;
81306;SDS011;70775;50.846;3.224;2023-06-26T09:02:57;7.40;;;2.00;;
81306;SDS011;70775;50.846;3.224;2023-06-26T09:05:24;8.35;;;1.92;;
81306;SDS011;70775;50.846;3.224;2023-06-26T09:07:52;5.25;;;2.05;;
81306;SDS011;70775;50.846;3.224;2023-06-26T09:10:20;5.75;;;1.80;;
81306;SDS011;70775;50.846;3.224;2023-06-26T09:12:46;3.83;;;1.60;;
81306;SDS011;70775;50.846;3.224;2023-06-26T09:15:14;6.00;;;1.85;;
81306;SDS011;70775;50.846;3.224;2023-06-26T09:17:40;4.22;;;1.55;;
81306;SDS011;70775;50.846;3.224;2023-06-26T09:20:07;2.97;;;1.60;;
81306;SDS011;70775;50.846;3.224;2023-06-26T09:22:34;6.75;;;1.90;;
81306;SDS011;70775;50.846;3.224;2023-06-26T09:25:03;3.95;;;1.60;;
81306;SDS011;70775;50.846;3.224;2023-06-26T09:27:30;3.40;;;1.85;;
81306;SDS011;70775;50.846;3.224;2023-06-26T09:29:56;5.03;;;1.40;;
81306;SDS011;70775;50.846;3.224;2023-06-26T09:32:24;4.13;;;1.65;;
81306;SDS011;70775;50.846;3.224;2023-06-26T09:34:52;5.55;;;1.80;;
81306;SDS011;70775;50.846;3.224;2023-06-26T09:37:18;5.60;;;2.00;;
81306;SDS011;70775;50.846;3.224;2023-06-26T09:39:44;5.90;;;2.15;;
81306;SDS011;70775;50.846;3.224;2023-06-26T09:42:10;4.53;;;1.90;;
81306;SDS011;70775;50.846;3.224;2023-06-26T09:44:45;3.40;;;1.80;;
81306;SDS011;70775;50.846;3.224;2023-06-26T09:47:15;4.78;;;1.65;;
81306;SDS011;70775;50.846;3.224;2023-06-26T09:49:43;4.32;;;1.80;;
81306;SDS011;70775;50.846;3.224;2023-06-26T09:52:09;4.38;;;1.92;;
81306;SDS011;70775;50.846;3.224;2023-06-26T09:54:35;4.93;;;1.73;;
81306;SDS011;70775;50.846;3.224;2023-06-26T09:57:08;5.10;;;1.92;;
81306;SDS011;70775;50.846;3.224;2023-06-26T09:59:37;2.88;;;1.30;;
81306;SDS011;70775;50.846;3.224;2023-06-26T10:02:03;4.65;;;1.70;;
81306;SDS011;70775;50.846;3.224;2023-06-26T10:04:29;4.95;;;1.98;;
81306;SDS011;70775;50.846;3.224;2023-06-26T10:06:55;4.45;;;1.75;;
81306;SDS011;70775;50.846;3.224;2023-06-26T10:09:23;3.65;;;1.48;;
81306;SDS011;70775;50.846;3.224;2023-06-26T10:14:24;6.45;;;2.10;;
81306;SDS011;70775;50.846;3.224;2023-06-26T10:16:54;8.52;;;1.77;;
81306;SDS011;70775;50.846;3.224;2023-06-26T10:19:23;4.00;;;1.98;;
81306;SDS011;70775;50.846;3.224;2023-06-26T10:21:52;3.50;;;1.50;;
81306;SDS011;70775;50.846;3.224;2023-06-26T10:24:19;3.67;;;1.48;;
81306;SDS011;70775;50.846;3.224;2023-06-26T10:26:48;4.80;;;1.77;;
81306;SDS011;70775;50.846;3.224;2023-06-26T10:29:16;5.57;;;1.67;;
81306;SDS011;70775;50.846;3.224;2023-06-26T10:31:45;3.63;;;1.70;;
81306;SDS011;70775;50.846;3.224;2023-06-26T10:34:13;4.20;;;1.58;;
81306;SDS011;70775;50.846;3.224;2023-06-26T10:36:40;4.57;;;1.80;;
81306;SDS011;70775;50.846;3.224;2023-06-26T10:39:06;4.03;;;1.50;;
81306;SDS011;70775;50.846;3.224;2023-06-26T10:41:36;3.33;;;1.38;;
81306;SDS011;70775;50.846;3.224;2023-06-26T10:44:10;6.57;;;1.90;;
81306;SDS011;70775;50.846;3.224;2023-06-26T10:46:52;2.97;;;1.55;;
81306;SDS011;70775;50.846;3.224;2023-06-26T10:49:20;6.50;;;2.08;;
81306;SDS011;70775;50.846;3.224;2023-06-26T10:51:51;3.80;;;1.55;;
81306;SDS011;70775;50.846;3.224;2023-06-26T10:54:20;3.97;;;1.40;;
81306;SDS011;70775;50.846;3.224;2023-06-26T10:56:50;4.43;;;2.05;;
81306;SDS011;70775;50.846;3.224;2023-06-26T10:59:19;4.22;;;1.83;;
81306;SDS011;70775;50.846;3.224;2023-06-26T11:01:47;5.03;;;1.70;;
81306;SDS011;70775;50.846;3.224;2023-06-26T11:07:15;3.67;;;1.52;;
81306;SDS011;70775;50.846;3.224;2023-06-26T11:12:36;8.60;;;2.33;;
81306;SDS011;70775;50.846;3.224;2023-06-26T11:15:07;1.92;;;1.25;;
81306;SDS011;70775;50.846;3.224;2023-06-26T11:17:34;4.30;;;1.45;;
81306;SDS011;70775;50.846;3.224;2023-06-26T11:20:06;5.60;;;1.70;;
81306;SDS011;70775;50.846;3.224;2023-06-26T11:22:34;3.63;;;1.20;;
81306;SDS011;70775;50.846;3.224;2023-06-26T11:25:01;6.18;;;1.45;;
81306;SDS011;70775;50.846;3.224;2023-06-26T11:27:32;4.63;;;1.58;;
81306;SDS011;70775;50.846;3.224;2023-06-26T11:30:08;4.68;;;1.80;;
81306;SDS011;70775;50.846;3.224;2023-06-26T11:32:38;3.75;;;1.33;;
81306;SDS011;70775;50.846;3.224;2023-06-26T11:35:05;4.60;;;1.63;;
81306;SDS011;70775;50.846;3.224;2023-06-26T11:37:31;4.50;;;1.40;;
81306;SDS011;70775;50.846;3.224;2023-06-26T11:39:57;8.40;;;1.80;;
81306;SDS011;70775;50.846;3.224;2023-06-26T11:42:23;4.55;;;1.40;;
81306;SDS011;70775;50.846;3.224;2023-06-26T11:44:52;1.90;;;1.23;;
81306;SDS011;70775;50.846;3.224;2023-06-26T11:47:19;3.17;;;1.27;;
81306;SDS011;70775;50.846;3.224;2023-06-26T11:49:46;4.88;;;1.60;;
81306;SDS011;70775;50.846;3.224;2023-06-26T11:52:13;5.45;;;1.52;;
81306;SDS011;70775;50.846;3.224;2023-06-26T11:54:40;2.75;;;1.40;;
81306;SDS011;70775;50.846;3.224;2023-06-26T11:57:06;5.13;;;1.70;;
81306;SDS011;70775;50.846;3.224;2023-06-26T11:59:35;4.95;;;1.60;;
81306;SDS011;70775;50.846;3.224;2023-06-26T12:02:07;3.10;;;1.23;;
81306;SDS011;70775;50.846;3.224;2023-06-26T12:04:35;3.05;;;1.30;;
81306;SDS011;70775;50.846;3.224;2023-06-26T12:07:04;5.20;;;1.27;;
81306;SDS011;70775;50.846;3.224;2023-06-26T12:09:33;3.28;;;1.33;;
81306;SDS011;70775;50.846;3.224;2023-06-26T12:12:06;1.92;;;1.30;;
81306;SDS011;70775;50.846;3.224;2023-06-26T12:14:37;4.15;;;1.33;;
81306;SDS011;70775;50.846;3.224;2023-06-26T12:17:11;2.85;;;1.30;;
81306;SDS011;70775;50.846;3.224;2023-06-26T12:19:39;3.65;;;1.33;;
81306;SDS011;70775;50.846;3.224;2023-06-26T12:22:09;3.10;;;1.48;;
81306;SDS011;70775;50.846;3.224;2023-06-26T12:24:36;2.72;;;1.20;;
81306;SDS011;70775;50.846;3.224;2023-06-26T12:30:27;4.07;;;1.38;;
81306;SDS011;70775;50.846;3.224;2023-06-26T12:32:53;5.35;;;1.10;;
81306;SDS011;70775;50.846;3.224;2023-06-26T12:35:19;3.40;;;1.10;;
81306;SDS011;70775;50.846;3.224;2023-06-26T12:40:51;3.15;;;1.40;;
81306;SDS011;70775;50.846;3.224;2023-06-26T12:43:22;5.07;;;1.60;;
81306;SDS011;70775;50.846;3.224;2023-06-26T12:45:48;4.30;;;1.33;;
81306;SDS011;70775;50.846;3.224;2023-06-26T12:51:18;3.47;;;1.10;;
81306;SDS011;70775;50.846;3.224;2023-06-26T12:53:46;4.13;;;1.52;;
81306;SDS011;70775;50.846;3.224;2023-06-26T12:56:18;8.77;;;2.15;;
81306;SDS011;70775;50.846;3.224;2023-06-26T12:58:45;3.28;;;1.42;;
81306;SDS011;70775;50.846;3.224;2023-06-26T13:04:33;3.30;;;1.40;;
81306;SDS011;70775;50.846;3.224;2023-06-26T13:07:13;5.88;;;1.40;;
81306;SDS011;70775;50.846;3.224;2023-06-26T13:09:39;5.00;;;1.40;;
81306;SDS011;70775;50.846;3.224;2023-06-26T13:12:06;4.28;;;1.70;;
81306;SDS011;70775;50.846;3.224;2023-06-26T13:14:32;6.57;;;1.95;;
81306;SDS011;70775;50.846;3.224;2023-06-26T13:16:59;2.65;;;1.60;;
81306;SDS011;70775;50.846;3.224;2023-06-26T13:19:26;5.35;;;1.73;;
81306;SDS011;70775;50.846;3.224;2023-06-26T13:21:51;5.50;;;1.90;;
81306;SDS011;70775;50.846;3.224;2023-06-26T13:24:20;3.67;;;1.75;;
81306;SDS011;70775;50.846;3.224;2023-06-26T13:26:54;4.43;;;1.90;;
81306;SDS011;70775;50.846;3.224;2023-06-26T13:29:19;5.65;;;1.70;;
81306;SDS011;70775;50.846;3.224;2023-06-26T13:35:09;5.63;;;1.67;;
81306;SDS011;70775;50.846;3.224;2023-06-26T13:37:35;5.30;;;1.50;;
81306;SDS011;70775;50.846;3.224;2023-06-26T13:40:01;3.25;;;1.42;;
81306;SDS011;70775;50.846;3.224;2023-06-26T13:42:28;4.18;;;1.70;;
81306;SDS011;70775;50.846;3.224;2023-06-26T13:44:54;6.85;;;1.95;;
81306;SDS011;70775;50.846;3.224;2023-06-26T13:47:20;7.50;;;1.55;;
81306;SDS011;70775;50.846;3.224;2023-06-26T13:49:46;3.53;;;1.60;;
81306;SDS011;70775;50.846;3.224;2023-06-26T13:52:12;3.75;;;1.50;;
81306;SDS011;70775;50.846;3.224;2023-06-26T13:54:37;3.35;;;1.40;;
81306;SDS011;70775;50.846;3.224;2023-06-26T13:57:05;3.53;;;1.33;;
81306;SDS011;70775;50.846;3.224;2023-06-26T13:59:33;6.07;;;1.75;;
81306;SDS011;70775;50.846;3.224;2023-06-26T14:02:02;3.50;;;1.60;;
81306;SDS011;70775;50.846;3.224;2023-06-26T14:04:27;4.00;;;1.40;;
81306;SDS011;70775;50.846;3.224;2023-06-26T14:06:53;3.50;;;1.50;;
81306;SDS011;70775;50.846;3.224;2023-06-26T14:09:19;6.28;;;1.75;;
81306;SDS011;70775;50.846;3.224;2023-06-26T14:11:44;4.18;;;1.27;;
81306;SDS011;70775;50.846;3.224;2023-06-26T14:14:10;3.10;;;2.00;;
81306;SDS011;70775;50.846;3.224;2023-06-26T14:16:38;6.43;;;1.98;;
81306;SDS011;70775;50.846;3.224;2023-06-26T14:19:05;4.30;;;1.40;;
81306;SDS011;70775;50.846;3.224;2023-06-26T14:21:31;3.78;;;1.63;;
81306;SDS011;70775;50.846;3.224;2023-06-26T14:23:58;5.65;;;1.65;;
81306;SDS011;70775;50.846;3.224;2023-06-26T14:26:24;3.75;;;1.67;;
81306;SDS011;70775;50.846;3.224;2023-06-26T14:28:49;2.47;;;1.27;;
81306;SDS011;70775;50.846;3.224;2023-06-26T14:31:15;6.15;;;2.00;;
81306;SDS011;70775;50.846;3.224;2023-06-26T14:33:41;3.92;;;1.85;;
81306;SDS011;70775;50.846;3.224;2023-06-26T14:36:07;7.60;;;2.05;;
81306;SDS011;70775;50.846;3.224;2023-06-26T14:38:32;5.35;;;1.50;;
81306;SDS011;70775;50.846;3.224;2023-06-26T14:40:58;4.63;;;1.70;;
81306;SDS011;70775;50.846;3.224;2023-06-26T14:43:24;4.43;;;1.48;;
81306;SDS011;70775;50.846;3.224;2023-06-26T14:45:49;3.30;;;1.50;;
81306;SDS011;70775;50.846;3.224;2023-06-26T14:48:15;3.65;;;1.42;;
81306;SDS011;70775;50.846;3.224;2023-06-26T14:50:41;5.95;;;1.45;;
81306;SDS011;70775;50.846;3.224;2023-06-26T14:53:06;4.72;;;1.77;;
81306;SDS011;70775;50.846;3.224;2023-06-26T14:55:32;4.25;;;1.75;;
81306;SDS011;70775;50.846;3.224;2023-06-26T14:57:58;3.83;;;1.92;;
81306;SDS011;70775;50.846;3.224;2023-06-26T15:00:23;6.20;;;1.73;;
81306;SDS011;70775;50.846;3.224;2023-06-26T15:02:49;5.93;;;1.88;;
81306;SDS011;70775;50.846;3.224;2023-06-26T15:05:18;6.88;;;2.10;;
81306;SDS011;70775;50.846;3.224;2023-06-26T15:07:44;2.38;;;1.50;;
81306;SDS011;70775;50.846;3.224;2023-06-26T15:10:10;5.07;;;1.70;;
81306;SDS011;70775;50.846;3.224;2023-06-26T15:12:35;4.45;;;1.70;;
81306;SDS011;70775;50.846;3.224;2023-06-26T15:15:01;3.50;;;1.70;;
81306;SDS011;70775;50.846;3.224;2023-06-26T15:17:27;4.28;;;1.70;;
81306;SDS011;70775;50.846;3.224;2023-06-26T15:19:53;4.97;;;1.98;;
81306;SDS011;70775;50.846;3.224;2023-06-26T15:22:18;5.03;;;1.70;;
81306;SDS011;70775;50.846;3.224;2023-06-26T15:24:47;5.10;;;1.90;;
81306;SDS011;70775;50.846;3.224;2023-06-26T15:27:12;6.07;;;2.00;;